createdAt,value
2019-05-01T00:01:19.624Z,53.12
2019-05-01T00:05:30.292Z,55.45
2019-05-01T00:09:36.134Z,54.22
2019-05-01T00:13:41.906Z,53.37
2019-05-01T00:17:47.630Z,56.72
2019-05-01T00:21:53.403Z,54.35
2019-05-01T00:25:59.097Z,54.62
2019-05-01T00:30:08.374Z,55.01
2019-05-01T00:34:14.074Z,53.46
2019-05-01T00:38:19.885Z,55.18
2019-05-01T00:42:25.559Z,54.27
2019-05-01T00:46:31.302Z,56.41
2019-05-01T00:50:37.022Z,53.25
2019-05-01T00:54:44.421Z,55.77
2019-05-01T00:59:04.597Z,54.11
2019-05-01T01:03:12.110Z,51.71
2019-05-01T01:07:17.779Z,53.52
2019-05-01T01:11:23.473Z,52.93
2019-05-01T01:15:29.312Z,51.26
2019-05-01T01:19:35.011Z,52.58
2019-05-01T01:23:41.206Z,51.48
2019-05-01T01:27:47.109Z,55.74
2019-05-01T01:31:52.955Z,53.09
2019-05-01T01:35:58.647Z,52.96
2019-05-01T01:40:06.148Z,55.34
2019-05-01T01:44:29.017Z,52.98
2019-05-01T01:48:35.001Z,56.46
2019-05-01T01:52:40.922Z,57.40
2019-05-01T01:56:46.867Z,57.12
2019-05-01T02:01:11.048Z,56.24
2019-05-01T02:05:18.486Z,54.79
2019-05-01T02:09:24.631Z,55.21
2019-05-01T02:13:30.700Z,52.06
2019-05-01T02:17:36.606Z,55.30
2019-05-01T02:21:42.363Z,52.40
2019-05-01T02:25:48.065Z,52.97
2019-05-01T02:29:56.085Z,53.86
2019-05-01T02:34:04.215Z,58.83
2019-05-01T02:38:12.839Z,57.48
2019-05-01T02:42:22.353Z,55.02
2019-05-01T02:46:31.620Z,56.16
2019-05-01T02:50:40.506Z,56.68
2019-05-01T02:54:48.895Z,56.58
2019-05-01T02:58:57.963Z,55.23
2019-05-01T03:03:05.068Z,55.13
2019-05-01T03:07:12.117Z,57.65
2019-05-01T03:11:17.943Z,57.00
2019-05-01T03:15:27.058Z,56.27
2019-05-01T03:19:35.230Z,58.18
2019-05-01T03:23:43.481Z,56.80
2019-05-01T03:27:49.316Z,56.12
2019-05-01T03:32:15.261Z,56.48
2019-05-01T03:36:04.261Z,56.61
2019-05-01T03:40:12.345Z,57.23
2019-05-01T03:44:18.523Z,56.92
2019-05-01T03:48:24.354Z,57.99
2019-05-01T03:52:30.627Z,57.03
2019-05-01T03:56:36.668Z,59.68
2019-05-01T04:00:52.862Z,60.09
2019-05-01T04:04:58.700Z,60.42
2019-05-01T04:09:06.210Z,58.98
2019-05-01T04:13:12.240Z,57.53
2019-05-01T04:17:23.320Z,58.45
2019-05-01T04:21:31.161Z,56.69
2019-05-01T04:25:37.657Z,56.07
2019-05-01T04:29:45.202Z,60.56
2019-05-01T04:33:55.828Z,57.05
2019-05-01T04:38:01.761Z,55.94
2019-05-01T04:42:07.768Z,55.98
2019-05-01T04:46:13.677Z,55.38
2019-05-01T04:50:19.805Z,56.49
2019-05-01T04:54:25.922Z,56.92
2019-05-01T04:58:32.637Z,57.39
2019-05-01T05:02:40.400Z,58.72
2019-05-01T05:06:46.335Z,55.51
2019-05-01T05:10:53.843Z,53.18
2019-05-01T05:15:01.700Z,52.59
2019-05-01T05:19:07.601Z,51.47
2019-05-01T05:23:13.561Z,53.67
2019-05-01T05:27:19.970Z,51.99
2019-05-01T05:31:28.175Z,52.21
2019-05-01T05:35:37.689Z,52.15
2019-05-01T05:39:45.829Z,52.32
2019-05-01T05:43:51.743Z,54.78
2019-05-01T05:47:57.641Z,54.12
2019-05-01T05:52:12.610Z,52.92
2019-05-01T05:56:23.753Z,51.31
2019-05-01T06:00:41.270Z,51.21
2019-05-01T06:04:51.818Z,52.08
2019-05-01T06:09:01.261Z,49.81
2019-05-01T06:13:10.365Z,49.76
2019-05-01T06:17:28.053Z,48.48
2019-05-01T06:21:36.073Z,51.14
2019-05-01T06:25:54.135Z,50.77
2019-05-01T06:29:59.162Z,46.44
2019-05-01T06:34:04.995Z,45.97
2019-05-01T06:38:15.376Z,45.47
2019-05-01T06:42:22.444Z,44.86
2019-05-01T06:46:39.160Z,47.70
2019-05-01T06:50:50.412Z,44.69
2019-05-01T06:54:58.377Z,47.92
2019-05-01T06:59:06.097Z,43.93
2019-05-01T07:03:12.165Z,43.07
2019-05-01T07:07:25.674Z,42.90
2019-05-01T07:11:30.555Z,42.84
2019-05-01T07:15:36.452Z,41.06
2019-05-01T07:19:51.088Z,41.12
2019-05-01T07:23:57.236Z,41.79
2019-05-01T07:28:03.063Z,39.61
2019-05-01T07:32:08.832Z,39.80
2019-05-01T07:36:16.502Z,41.53
2019-05-01T07:40:29.019Z,38.99
2019-05-01T07:44:38.462Z,40.46
2019-05-01T07:48:45.765Z,37.98
2019-05-01T07:52:53.957Z,37.47
2019-05-01T07:57:03.156Z,36.35
2019-05-01T08:01:20.116Z,38.75
2019-05-01T08:05:27.069Z,36.86
2019-05-01T08:09:32.841Z,35.53
2019-05-01T08:13:38.528Z,35.79
2019-05-01T08:17:48.789Z,34.98
2019-05-01T08:22:01.823Z,34.82
2019-05-01T08:26:08.755Z,33.73
2019-05-01T08:30:22.681Z,34.04
2019-05-01T08:34:32.728Z,32.73
2019-05-01T08:38:38.413Z,31.65
2019-05-01T08:42:44.268Z,32.50
2019-05-01T08:46:54.502Z,31.47
2019-05-01T08:51:00.501Z,31.04
2019-05-01T08:55:09.226Z,30.49
2019-05-01T08:59:14.851Z,30.59
2019-05-01T09:03:20.742Z,29.78
2019-05-01T09:07:26.429Z,29.65
2019-05-01T09:11:36.295Z,28.37
2019-05-01T09:15:43.672Z,28.57
2019-05-01T09:19:47.582Z,27.79
2019-05-01T09:23:53.457Z,27.10
2019-05-01T09:28:05.700Z,27.59
2019-05-01T09:32:11.978Z,26.50
2019-05-01T09:36:17.801Z,26.11
2019-05-01T09:40:23.636Z,24.43
2019-05-01T09:44:29.335Z,24.23
2019-05-01T09:48:35.273Z,22.58
2019-05-01T09:52:48.673Z,22.28
2019-05-01T09:56:54.482Z,21.36
2019-05-01T10:01:00.955Z,20.28
2019-05-01T10:05:08.142Z,20.69
2019-05-01T10:09:16.858Z,19.93
2019-05-01T10:13:22.511Z,19.47
2019-05-01T10:17:28.797Z,20.13
2019-05-01T10:21:34.490Z,18.84
2019-05-01T10:25:42.960Z,18.28
2019-05-01T10:30:06.521Z,18.47
2019-05-01T10:34:27.116Z,19.04
2019-05-01T10:38:33.064Z,18.21
2019-05-01T10:42:41.015Z,17.68
2019-05-01T10:46:47.131Z,18.13
2019-05-01T10:50:52.833Z,19.35
2019-05-01T10:54:58.505Z,16.48
2019-05-01T10:59:05.307Z,16.57
2019-05-01T11:03:11.234Z,20.15
2019-05-01T11:07:17.123Z,16.88
2019-05-01T11:11:22.810Z,17.99
2019-05-01T11:15:29.593Z,17.76
2019-05-01T11:19:35.315Z,17.04
2019-05-01T11:23:41.082Z,16.67
2019-05-01T11:27:46.771Z,15.54
2019-05-01T11:31:54.147Z,15.73
2019-05-01T11:36:09.512Z,16.54
2019-05-01T11:40:34.755Z,17.55
2019-05-01T11:44:40.448Z,15.86
2019-05-01T11:48:46.265Z,16.74
2019-05-01T11:52:52.063Z,15.49
2019-05-01T11:56:57.753Z,15.50
2019-05-01T12:05:14.854Z,16.68
2019-05-01T12:09:20.627Z,15.66
2019-05-01T12:13:26.481Z,16.13
2019-05-01T12:17:48.538Z,16.94
2019-05-01T12:21:54.292Z,16.44
2019-05-01T12:25:59.989Z,15.19
2019-05-01T12:30:11.537Z,16.29
2019-05-01T12:34:17.243Z,15.58
2019-05-01T12:38:22.932Z,15.48
2019-05-01T12:42:32.676Z,16.23
2019-05-01T12:46:45.856Z,15.88
2019-05-01T12:50:51.824Z,18.10
2019-05-01T12:55:06.327Z,18.11
2019-05-01T12:59:11.995Z,15.76
2019-05-01T13:03:17.694Z,15.45
2019-05-01T13:07:23.691Z,15.29
2019-05-01T13:11:29.378Z,16.58
2019-05-01T13:15:35.086Z,17.09
2019-05-01T13:19:40.836Z,18.66
2019-05-01T13:23:46.552Z,16.95
2019-05-01T13:27:56.671Z,17.34
2019-05-01T13:32:20.325Z,17.03
2019-05-01T13:36:26.603Z,15.49
2019-05-01T13:40:32.669Z,16.20
2019-05-01T13:44:38.366Z,16.33
2019-05-01T13:48:44.133Z,15.62
2019-05-01T13:52:49.837Z,15.24
2019-05-01T13:56:55.553Z,16.30
2019-05-01T14:01:01.317Z,16.15
2019-05-01T14:05:07.967Z,16.92
2019-05-01T14:09:15.781Z,16.65
2019-05-01T14:13:21.468Z,17.30
2019-05-01T14:17:27.251Z,17.81
2019-05-01T14:21:37.641Z,16.84
2019-05-01T14:26:00.838Z,17.20
2019-05-01T14:30:09.697Z,18.19
2019-05-01T14:34:15.446Z,17.63
2019-05-01T14:38:21.283Z,17.64
2019-05-01T14:42:26.985Z,18.70
2019-05-01T14:46:32.686Z,17.77
2019-05-01T14:50:38.398Z,17.64
2019-05-01T14:54:44.115Z,18.24
2019-05-01T14:58:50.083Z,18.41
2019-05-01T15:02:55.851Z,18.52
2019-05-01T15:07:01.610Z,17.91
2019-05-01T15:11:07.306Z,18.02
2019-05-01T15:15:20.659Z,17.47
2019-05-01T15:19:28.011Z,18.12
2019-05-01T15:23:33.679Z,18.38
2019-05-01T15:27:39.393Z,18.94
2019-05-01T15:31:45.161Z,18.86
2019-05-01T15:35:50.877Z,18.48
2019-05-01T15:40:00.969Z,18.67
2019-05-01T15:44:19.936Z,17.19
2019-05-01T15:48:25.709Z,17.97
2019-05-01T15:52:31.400Z,19.44
2019-05-01T15:56:37.155Z,18.43
2019-05-01T16:00:42.954Z,18.54
2019-05-01T16:04:48.636Z,19.30
2019-05-01T16:08:54.319Z,21.89
2019-05-01T16:13:01.689Z,18.62
2019-05-01T16:17:07.811Z,18.79
2019-05-01T16:21:13.568Z,19.12
2019-05-01T16:25:19.363Z,19.77
2019-05-01T16:29:25.150Z,21.75
2019-05-01T16:33:30.981Z,20.69
2019-05-01T16:37:36.756Z,21.16
2019-05-01T16:41:44.311Z,23.52
2019-05-01T16:45:50.426Z,21.36
2019-05-01T16:49:56.108Z,23.85
2019-05-01T16:54:01.905Z,22.81
2019-05-01T16:58:09.407Z,21.48
2019-05-01T17:02:22.501Z,22.43
2019-05-01T17:06:46.156Z,25.16
2019-05-01T17:10:53.315Z,26.72
2019-05-01T17:14:59.006Z,26.23
2019-05-01T17:19:05.989Z,26.89
2019-05-01T17:23:11.800Z,27.48
2019-05-01T17:27:17.543Z,29.30
2019-05-01T17:31:24.869Z,28.76
2019-05-01T17:35:30.566Z,27.83
2019-05-01T17:39:36.250Z,30.54
2019-05-01T17:43:44.675Z,30.35
2019-05-01T17:47:52.810Z,27.85
2019-05-01T17:51:58.021Z,28.07
2019-05-01T17:56:03.947Z,29.04
2019-05-01T18:00:27.594Z,31.33
2019-05-01T18:04:47.026Z,31.10
2019-05-01T18:09:02.844Z,29.72
2019-05-01T18:13:00.200Z,30.01
2019-05-01T18:17:06.177Z,29.47
2019-05-01T18:21:13.150Z,29.79
2019-05-01T18:25:20.532Z,29.69
2019-05-01T18:29:27.933Z,30.65
2019-05-01T18:33:33.715Z,31.26
2019-05-01T18:37:41.253Z,31.65
2019-05-01T18:41:48.826Z,32.54
2019-05-01T18:45:56.681Z,33.65
2019-05-01T18:50:02.513Z,34.41
2019-05-01T18:54:08.413Z,34.79
2019-05-01T18:58:14.187Z,32.52
2019-05-01T19:02:20.494Z,33.68
2019-05-01T19:06:40.387Z,33.02
2019-05-01T19:10:34.857Z,32.46
2019-05-01T19:14:40.608Z,32.32
2019-05-01T19:18:46.345Z,33.02
2019-05-01T19:22:52.125Z,34.27
2019-05-01T19:26:57.846Z,35.47
2019-05-01T19:31:03.618Z,35.48
2019-05-01T19:35:10.132Z,36.13
2019-05-01T19:39:16.118Z,35.37
2019-05-01T19:43:21.845Z,34.62
2019-05-01T19:47:27.652Z,36.41
2019-05-01T19:51:33.902Z,35.09
2019-05-01T19:55:39.985Z,36.56
2019-05-01T19:59:47.204Z,38.22
2019-05-01T20:03:53.039Z,38.38
2019-05-01T20:07:58.817Z,36.47
2019-05-01T20:12:06.002Z,37.91
2019-05-01T20:16:12.806Z,37.72
2019-05-01T20:20:18.739Z,36.46
2019-05-01T20:24:24.677Z,37.70
2019-05-01T20:28:30.369Z,38.44
2019-05-01T20:32:36.083Z,39.60
2019-05-01T20:36:41.846Z,39.56
2019-05-01T20:40:47.633Z,40.66
2019-05-01T20:45:04.292Z,39.57
2019-05-01T20:49:06.362Z,40.17
2019-05-01T20:53:09.363Z,38.38
2019-05-01T20:57:20.813Z,38.64
2019-05-01T21:01:29.524Z,38.41
2019-05-01T21:05:37.886Z,39.76
2019-05-01T21:09:52.648Z,40.53
2019-05-01T21:14:15.701Z,38.28
2019-05-01T21:18:03.624Z,38.58
2019-05-01T21:22:09.393Z,38.97
2019-05-01T21:26:15.106Z,39.27
2019-05-01T21:30:20.931Z,40.49
2019-05-01T21:34:26.673Z,40.72
2019-05-01T21:38:32.445Z,39.53
2019-05-01T21:42:38.146Z,40.15
2019-05-01T21:46:44.025Z,40.25
2019-05-01T21:50:49.771Z,39.63
2019-05-01T21:54:57.021Z,38.95
2019-05-01T21:59:15.017Z,40.54
2019-05-01T22:03:21.458Z,38.96
2019-05-01T22:07:29.123Z,41.77
2019-05-01T22:11:37.868Z,41.47
2019-05-01T22:15:47.241Z,38.77
2019-05-01T22:19:53.078Z,39.83
2019-05-01T22:24:18.107Z,42.23
2019-05-01T22:28:34.473Z,40.67
2019-05-01T22:32:41.908Z,41.85
2019-05-01T22:36:47.699Z,41.38
2019-05-01T22:41:06.036Z,40.80
2019-05-01T22:45:08.829Z,42.56
2019-05-01T22:49:14.617Z,41.64
2019-05-01T22:53:20.293Z,44.63
2019-05-01T22:57:26.042Z,43.78
2019-05-01T23:01:31.750Z,45.12
2019-05-01T23:05:37.493Z,46.39
2019-05-01T23:09:43.609Z,43.48
2019-05-01T23:13:49.426Z,44.54
2019-05-01T23:17:55.199Z,44.26
2019-05-01T23:22:00.892Z,44.46
2019-05-01T23:26:06.657Z,44.87
2019-05-01T23:30:15.899Z,45.33
2019-05-01T23:34:26.124Z,46.24
2019-05-01T23:38:29.915Z,47.26
2019-05-01T23:42:35.671Z,45.41
2019-05-01T23:46:41.405Z,49.11
2019-05-01T23:50:47.195Z,44.62
2019-05-01T23:54:53.874Z,45.44
2019-05-01T23:58:59.542Z,44.48
